sensor_id;sensor_type;location;lat;lon;timestamp;pressure;altitude;pressure_sealevel;temperature;humidity
28310;BME280;15571;50.974;13.936;2024-03-22T00:02:56;100702.13;;;11.92;100.00
28310;BME280;15571;50.974;13.936;2024-03-22T00:05:57;100698.66;;;11.81;100.00
28310;BME280;15571;50.974;13.936;2024-03-22T00:09:08;100701.34;;;11.50;100.00
28310;BME280;15571;50.974;13.936;2024-03-22T00:12:09;100704.84;;;11.52;100.00
28310;BME280;15571;50.974;13.936;2024-03-22T00:15:11;100704.84;;;11.52;100.00
28310;BME280;15571;50.974;13.936;2024-03-22T00:18:13;100703.06;;;11.63;100.00
28310;BME280;15571;50.974;13.936;2024-03-22T00:21:15;100706.56;;;11.62;100.00
28310;BME280;15571;50.974;13.936;2024-03-22T00:24:16;100699.53;;;11.72;100.00
28310;BME280;15571;50.974;13.936;2024-03-22T00:27:17;100703.91;;;11.68;100.00
28310;BME280;15571;50.974;13.936;2024-03-22T00:30:18;100702.16;;;11.80;100.00
28310;BME280;15571;50.974;13.936;2024-03-22T00:33:22;100695.19;;;11.60;100.00
28310;BME280;15571;50.974;13.936;2024-03-22T00:36:25;100706.53;;;11.75;100.00
28310;BME280;15571;50.974;13.936;2024-03-22T00:39:27;100695.19;;;11.70;100.00
28310;BME280;15571;50.974;13.936;2024-03-22T00:42:27;100705.66;;;11.71;100.00
28310;BME280;15571;50.974;13.936;2024-03-22T00:45:29;100692.56;;;11.70;100.00
28310;BME280;15571;50.974;13.936;2024-03-22T00:48:34;100687.31;;;11.70;100.00
28310;BME280;15571;50.974;13.936;2024-03-22T00:51:37;100693.44;;;11.68;100.00
28310;BME280;15571;50.974;13.936;2024-03-22T00:54:37;100697.78;;;11.71;100.00
28310;BME280;15571;50.974;13.936;2024-03-22T00:57:41;100689.94;;;11.70;100.00
28310;BME280;15571;50.974;13.936;2024-03-22T01:00:46;100694.28;;;11.72;100.00
28310;BME280;15571;50.974;13.936;2024-03-22T01:03:49;100692.56;;;11.70;100.00
28310;BME280;15571;50.974;13.936;2024-03-22T01:06:50;100686.44;;;11.71;100.00
28310;BME280;15571;50.974;13.936;2024-03-22T01:09:52;100677.69;;;11.72;100.00
28310;BME280;15571;50.974;13.936;2024-03-22T01:12:53;100668.06;;;11.75;100.00
28310;BME280;15571;50.974;13.936;2024-03-22T01:15:55;100669.81;;;11.72;100.00
28310;BME280;15571;50.974;13.936;2024-03-22T01:18:57;100672.44;;;11.68;100.00
28310;BME280;15571;50.974;13.936;2024-03-22T01:21:59;100667.22;;;11.72;100.00
28310;BME280;15571;50.974;13.936;2024-03-22T01:25:00;100661.97;;;11.72;100.00
28310;BME280;15571;50.974;13.936;2024-03-22T01:28:02;100670.72;;;11.69;100.00
28310;BME280;15571;50.974;13.936;2024-03-22T01:31:04;100659.38;;;11.65;100.00
28310;BME280;15571;50.974;13.936;2024-03-22T01:34:08;100650.59;;;11.70;100.00
28310;BME280;15571;50.974;13.936;2024-03-22T01:37:08;100639.25;;;11.64;100.00
28310;BME280;15571;50.974;13.936;2024-03-22T01:40:11;100640.13;;;11.62;100.00
28310;BME280;15571;50.974;13.936;2024-03-22T01:43:12;100635.78;;;11.59;100.00
28310;BME280;15571;50.974;13.936;2024-03-22T01:46:13;100635.75;;;11.56;100.00
28310;BME280;15571;50.974;13.936;2024-03-22T01:49:16;100635.75;;;11.56;100.00
28310;BME280;15571;50.974;13.936;2024-03-22T01:52:18;100634.03;;;11.53;100.00
28310;BME280;15571;50.974;13.936;2024-03-22T01:55:19;100633.16;;;11.51;100.00
28310;BME280;15571;50.974;13.936;2024-03-22T01:58:22;100628.81;;;11.44;100.00
28310;BME280;15571;50.974;13.936;2024-03-22T02:01:23;100623.56;;;11.55;100.00
28310;BME280;15571;50.974;13.936;2024-03-22T02:04:26;100617.47;;;11.48;100.00
28310;BME280;15571;50.974;13.936;2024-03-22T02:07:28;100615.72;;;11.44;100.00
28310;BME280;15571;50.974;13.936;2024-03-22T02:10:31;100608.72;;;11.42;100.00
28310;BME280;15571;50.974;13.936;2024-03-22T02:13:32;100605.25;;;11.33;100.00
28310;BME280;15571;50.974;13.936;2024-03-22T02:16:34;100602.63;;;11.40;100.00
28310;BME280;15571;50.974;13.936;2024-03-22T02:19:36;100607.84;;;11.40;100.00
28310;BME280;15571;50.974;13.936;2024-03-22T02:22:38;100600.91;;;11.32;100.00
28310;BME280;15571;50.974;13.936;2024-03-22T02:25:43;100600.88;;;11.39;100.00
28310;BME280;15571;50.974;13.936;2024-03-22T02:28:43;100593.06;;;11.31;100.00
28310;BME280;15571;50.974;13.936;2024-03-22T02:31:45;100585.19;;;11.32;100.00
28310;BME280;15571;50.974;13.936;2024-03-22T02:34:46;100583.44;;;11.31;100.00
28310;BME280;15571;50.974;13.936;2024-03-22T02:37:48;100572.94;;;11.31;100.00
28310;BME280;15571;50.974;13.936;2024-03-22T02:40:52;100562.47;;;11.28;100.00
28310;BME280;15571;50.974;13.936;2024-03-22T02:43:53;100566.84;;;11.28;100.00
28310;BME280;15571;50.974;13.936;2024-03-22T02:46:55;100563.34;;;11.26;100.00
28310;BME280;15571;50.974;13.936;2024-03-22T02:49:56;100561.59;;;11.25;100.00
28310;BME280;15571;50.974;13.936;2024-03-22T02:52:58;100564.25;;;11.26;100.00
28310;BME280;15571;50.974;13.936;2024-03-22T02:56:01;100564.22;;;11.29;100.00
28310;BME280;15571;50.974;13.936;2024-03-22T02:59:02;100562.47;;;11.31;100.00
28310;BME280;15571;50.974;13.936;2024-03-22T03:02:04;100558.13;;;11.21;100.00
28310;BME280;15571;50.974;13.936;2024-03-22T03:05:06;100560.75;;;11.19;100.00
28310;BME280;15571;50.974;13.936;2024-03-22T03:08:07;100557.25;;;11.20;100.00
28310;BME280;15571;50.974;13.936;2024-03-22T03:11:11;100552.00;;;11.27;100.00
28310;BME280;15571;50.974;13.936;2024-03-22T03:14:12;100546.72;;;11.28;100.00
28310;BME280;15571;50.974;13.936;2024-03-22T03:17:14;100541.53;;;11.19;100.00
28310;BME280;15571;50.974;13.936;2024-03-22T03:20:16;100538.03;;;11.20;100.00
28310;BME280;15571;50.974;13.936;2024-03-22T03:23:17;100542.41;;;11.12;100.00
28310;BME280;15571;50.974;13.936;2024-03-22T03:26:21;100543.28;;;11.11;100.00
28310;BME280;15571;50.974;13.936;2024-03-22T03:29:22;100541.56;;;11.13;100.00
28310;BME280;15571;50.974;13.936;2024-03-22T03:32:26;100539.81;;;11.10;100.00
28310;BME280;15571;50.974;13.936;2024-03-22T03:35:27;100533.69;;;11.13;100.00
28310;BME280;15571;50.974;13.936;2024-03-22T03:38:29;100532.78;;;11.17;100.00
28310;BME280;15571;50.974;13.936;2024-03-22T03:41:32;100538.09;;;10.92;100.00
28310;BME280;15571;50.974;13.936;2024-03-22T03:44:33;100531.94;;;11.04;100.00
28310;BME280;15571;50.974;13.936;2024-03-22T03:47:34;100525.84;;;11.05;100.00
28310;BME280;15571;50.974;13.936;2024-03-22T03:50:36;100511.88;;;11.01;100.00
28310;BME280;15571;50.974;13.936;2024-03-22T03:53:37;100525.81;;;11.10;100.00
28310;BME280;15571;50.974;13.936;2024-03-22T03:56:41;100522.38;;;10.98;100.00
28310;BME280;15571;50.974;13.936;2024-03-22T03:59:42;100512.78;;;10.93;100.00
28310;BME280;15571;50.974;13.936;2024-03-22T04:02:44;100518.91;;;10.93;100.00
28310;BME280;15571;50.974;13.936;2024-03-22T04:05:46;100518.91;;;10.87;100.00
28310;BME280;15571;50.974;13.936;2024-03-22T04:08:48;100511.94;;;10.80;100.00
28310;BME280;15571;50.974;13.936;2024-03-22T04:11:50;100516.25;;;10.99;100.00
28310;BME280;15571;50.974;13.936;2024-03-22T04:14:55;100512.78;;;10.91;100.00
28310;BME280;15571;50.974;13.936;2024-03-22T04:17:56;100508.44;;;10.87;100.00
28310;BME280;15571;50.974;13.936;2024-03-22T04:20:58;100503.19;;;10.96;100.00
28310;BME280;15571;50.974;13.936;2024-03-22T04:23:59;100506.69;;;10.95;100.00
28310;BME280;15571;50.974;13.936;2024-03-22T04:27:03;100507.56;;;10.83;100.00
28310;BME280;15571;50.974;13.936;2024-03-22T04:30:05;100510.22;;;10.76;100.00
28310;BME280;15571;50.974;13.936;2024-03-22T04:33:07;100498.84;;;10.81;100.00
28310;BME280;15571;50.974;13.936;2024-03-22T04:36:08;100503.19;;;10.81;100.00
28310;BME280;15571;50.974;13.936;2024-03-22T04:39:11;100497.97;;;10.79;100.00
28310;BME280;15571;50.974;13.936;2024-03-22T04:42:18;100496.22;;;10.83;100.00
28310;BME280;15571;50.974;13.936;2024-03-22T04:45:20;100494.47;;;10.79;100.00
28310;BME280;15571;50.974;13.936;2024-03-22T04:48:22;100503.22;;;10.70;100.00
28310;BME280;15571;50.974;13.936;2024-03-22T04:51:23;100497.97;;;10.73;100.00
28310;BME280;15571;50.974;13.936;2024-03-22T04:54:25;100496.25;;;10.61;100.00
28310;BME280;15571;50.974;13.936;2024-03-22T04:57:27;100482.31;;;10.47;100.00
28310;BME280;15571;50.974;13.936;2024-03-22T05:00:29;100482.31;;;10.39;100.00
28310;BME280;15571;50.974;13.936;2024-03-22T05:03:32;100477.94;;;10.50;100.00
28310;BME280;15571;50.974;13.936;2024-03-22T05:06:37;100473.56;;;10.60;100.00
28310;BME280;15571;50.974;13.936;2024-03-22T05:09:37;100459.59;;;10.61;100.00
28310;BME280;15571;50.974;13.936;2024-03-22T05:12:41;100460.50;;;10.62;100.00
28310;BME280;15571;50.974;13.936;2024-03-22T05:15:43;100460.47;;;10.71;100.00
28310;BME280;15571;50.974;13.936;2024-03-22T05:18:44;100465.72;;;10.62;100.00
28310;BME280;15571;50.974;13.936;2024-03-22T05:21:45;100463.16;;;10.38;100.00
28310;BME280;15571;50.974;13.936;2024-03-22T05:24:47;100463.97;;;10.56;100.00
28310;BME280;15571;50.974;13.936;2024-03-22T05:27:50;100464.84;;;10.49;100.00
28310;BME280;15571;50.974;13.936;2024-03-22T05:30:52;100466.59;;;10.56;100.00
28310;BME280;15571;50.974;13.936;2024-03-22T05:33:53;100463.09;;;10.63;100.00
28310;BME280;15571;50.974;13.936;2024-03-22T05:36:55;100457.00;;;10.50;100.00
28310;BME280;15571;50.974;13.936;2024-03-22T05:39:57;100459.59;;;10.61;100.00
28310;BME280;15571;50.974;13.936;2024-03-22T05:43:01;100451.75;;;10.52;100.00
28310;BME280;15571;50.974;13.936;2024-03-22T05:46:03;100436.03;;;10.64;100.00
28310;BME280;15571;50.974;13.936;2024-03-22T05:49:06;100430.81;;;10.59;100.00
28310;BME280;15571;50.974;13.936;2024-03-22T05:52:08;100431.69;;;10.66;100.00
28310;BME280;15571;50.974;13.936;2024-03-22T05:55:10;100426.41;;;10.80;100.00
28310;BME280;15571;50.974;13.936;2024-03-22T05:58:12;100422.91;;;10.83;100.00
28310;BME280;15571;50.974;13.936;2024-03-22T06:01:14;100424.59;;;10.90;100.00
28310;BME280;15571;50.974;13.936;2024-03-22T06:04:15;100427.22;;;10.93;100.00
28310;BME280;15571;50.974;13.936;2024-03-22T06:07:17;100429.84;;;10.90;100.00
28310;BME280;15571;50.974;13.936;2024-03-22T06:10:18;100422.00;;;10.92;100.00
28310;BME280;15571;50.974;13.936;2024-03-22T06:13:21;100421.13;;;10.94;100.00
28310;BME280;15571;50.974;13.936;2024-03-22T06:16:23;100420.22;;;10.98;100.00
28310;BME280;15571;50.974;13.936;2024-03-22T06:19:23;100419.34;;;10.99;100.00
28310;BME280;15571;50.974;13.936;2024-03-22T06:22:26;100407.06;;;11.11;100.00
28310;BME280;15571;50.974;13.936;2024-03-22T06:25:28;100408.75;;;11.21;100.00
28310;BME280;15571;50.974;13.936;2024-03-22T06:28:31;100407.88;;;11.25;100.00
28310;BME280;15571;50.974;13.936;2024-03-22T06:31:32;100411.28;;;11.36;100.00
28310;BME280;15571;50.974;13.936;2024-03-22T06:34:34;100405.94;;;11.60;100.00
28310;BME280;15571;50.974;13.936;2024-03-22T06:37:37;100404.09;;;11.66;100.00
28310;BME280;15571;50.974;13.936;2024-03-22T06:40:39;100397.06;;;11.75;100.00
28310;BME280;15571;50.974;13.936;2024-03-22T06:43:44;100396.16;;;11.79;100.00
28310;BME280;15571;50.974;13.936;2024-03-22T06:46:49;100385.63;;;11.85;100.00
28310;BME280;15571;50.974;13.936;2024-03-22T06:49:51;100385.56;;;11.94;100.00
28310;BME280;15571;50.974;13.936;2024-03-22T06:52:53;100382.94;;;11.94;100.00
28310;BME280;15571;50.974;13.936;2024-03-22T06:55:55;100381.06;;;12.09;100.00
28310;BME280;15571;50.974;13.936;2024-03-22T06:58:58;100366.97;;;12.22;100.00
28310;BME280;15571;50.974;13.936;2024-03-22T07:02:00;100362.47;;;12.34;100.00
28310;BME280;15571;50.974;13.936;2024-03-22T07:05:00;100361.56;;;12.35;100.00
28310;BME280;15571;50.974;13.936;2024-03-22T07:08:04;100359.53;;;12.61;100.00
28310;BME280;15571;50.974;13.936;2024-03-22T07:11:06;100359.72;;;12.44;100.00
28310;BME280;15571;50.974;13.936;2024-03-22T07:14:10;100357.97;;;12.47;100.00
28310;BME280;15571;50.974;13.936;2024-03-22T07:17:12;100359.63;;;12.54;100.00
28310;BME280;15571;50.974;13.936;2024-03-22T07:20:13;100355.16;;;12.64;100.00
28310;BME280;15571;50.974;13.936;2024-03-22T07:23:15;100358.66;;;12.61;100.00
28310;BME280;15571;50.974;13.936;2024-03-22T07:26:16;100353.34;;;12.66;100.00
28310;BME280;15571;50.974;13.936;2024-03-22T07:29:21;100357.56;;;12.79;100.00
28310;BME280;15571;50.974;13.936;2024-03-22T07:32:24;100353.22;;;12.75;100.00
28310;BME280;15571;50.974;13.936;2024-03-22T07:35:26;100344.44;;;12.79;100.00
28310;BME280;15571;50.974;13.936;2024-03-22T07:38:27;100342.59;;;12.84;100.00
28310;BME280;15571;50.974;13.936;2024-03-22T07:41:30;100350.50;;;12.86;100.00
28310;BME280;15571;50.974;13.936;2024-03-22T07:44:34;100348.59;;;12.96;100.00
28310;BME280;15571;50.974;13.936;2024-03-22T07:47:36;100341.41;;;13.08;100.00
28310;BME280;15571;50.974;13.936;2024-03-22T07:50:38;100340.25;;;13.30;100.00
28310;BME280;15571;50.974;13.936;2024-03-22T07:53:39;100334.09;;;13.31;100.00
28310;BME280;15571;50.974;13.936;2024-03-22T07:56:43;100344.66;;;13.28;100.00
28310;BME280;15571;50.974;13.936;2024-03-22T07:59:48;100334.00;;;13.37;100.00
28310;BME280;15571;50.974;13.936;2024-03-22T08:02:53;100327.69;;;13.50;100.00
28310;BME280;15571;50.974;13.936;2024-03-22T08:05:54;100329.06;;;13.73;100.00
28310;BME280;15571;50.974;13.936;2024-03-22T08:08:56;100326.50;;;13.68;100.00
28310;BME280;15571;50.974;13.936;2024-03-22T08:11:56;100321.97;;;13.78;100.00
28310;BME280;15571;50.974;13.936;2024-03-22T08:15:02;100313.13;;;13.82;100.00
28310;BME280;15571;50.974;13.936;2024-03-22T08:18:07;100311.22;;;13.92;100.00
28310;BME280;15571;50.974;13.936;2024-03-22T08:21:09;100311.97;;;13.97;100.00
28310;BME280;15571;50.974;13.936;2024-03-22T08:24:10;100303.91;;;14.08;100.00
28310;BME280;15571;50.974;13.936;2024-03-22T08:27:12;100297.75;;;14.09;100.00
28310;BME280;15571;50.974;13.936;2024-03-22T08:30:14;100295.66;;;14.27;100.00
28310;BME280;15571;50.974;13.936;2024-03-22T08:33:17;100292.88;;;14.33;100.00
28310;BME280;15571;50.974;13.936;2024-03-22T08:36:19;100292.84;;;14.36;100.00
28310;BME280;15571;50.974;13.936;2024-03-22T08:39:20;100288.38;;;14.40;100.00
28310;BME280;15571;50.974;13.936;2024-03-22T08:42:25;100289.97;;;14.47;100.00
28310;BME280;15571;50.974;13.936;2024-03-22T08:45:28;100290.53;;;14.63;100.00
28310;BME280;15571;50.974;13.936;2024-03-22T08:48:30;100287.81;;;14.69;100.00
28310;BME280;15571;50.974;13.936;2024-03-22T08:51:32;100277.97;;;14.77;100.00
28310;BME280;15571;50.974;13.936;2024-03-22T08:54:34;100275.88;;;14.92;100.00
28310;BME280;15571;50.974;13.936;2024-03-22T08:57:37;100264.22;;;15.02;100.00
28310;BME280;15571;50.974;13.936;2024-03-22T09:00:39;100258.03;;;15.03;100.00
28310;BME280;15571;50.974;13.936;2024-03-22T09:03:43;100253.50;;;15.10;100.00
28310;BME280;15571;50.974;13.936;2024-03-22T09:06:46;100247.22;;;15.16;100.00
28310;BME280;15571;50.974;13.936;2024-03-22T09:09:47;100243.44;;;15.26;100.00
28310;BME280;15571;50.974;13.936;2024-03-22T09:12:49;100237.22;;;15.29;100.00
28310;BME280;15571;50.974;13.936;2024-03-22T09:15:57;100237.19;;;15.30;100.00
28310;BME280;15571;50.974;13.936;2024-03-22T09:18:59;100225.66;;;15.34;100.00
28310;BME280;15571;50.974;13.936;2024-03-22T09:22:01;100228.00;;;15.45;100.00
28310;BME280;15571;50.974;13.936;2024-03-22T09:25:03;100236.88;;;15.43;100.00
28310;BME280;15571;50.974;13.936;2024-03-22T09:28:06;100234.19;;;15.46;100.00
28310;BME280;15571;50.974;13.936;2024-03-22T09:31:08;100234.19;;;15.46;100.00
28310;BME280;15571;50.974;13.936;2024-03-22T09:34:11;100230.69;;;15.44;100.00
28310;BME280;15571;50.974;13.936;2024-03-22T09:37:16;100232.66;;;15.35;100.00
28310;BME280;15571;50.974;13.936;2024-03-22T09:40:18;100228.97;;;15.43;100.00
28310;BME280;15571;50.974;13.936;2024-03-22T09:43:19;100221.72;;;15.51;100.00
28310;BME280;15571;50.974;13.936;2024-03-22T09:46:22;100221.28;;;15.68;100.00
28310;BME280;15571;50.974;13.936;2024-03-22T09:49:23;100217.09;;;15.61;100.00
28310;BME280;15571;50.974;13.936;2024-03-22T09:52:26;100209.63;;;15.77;100.00
28310;BME280;15571;50.974;13.936;2024-03-22T09:55:28;100206.09;;;15.76;100.00
28310;BME280;15571;50.974;13.936;2024-03-22T09:58:31;100202.34;;;15.86;100.00
28310;BME280;15571;50.974;13.936;2024-03-22T10:01:36;100189.22;;;15.82;100.00
28310;BME280;15571;50.974;13.936;2024-03-22T10:04:37;100190.19;;;15.79;100.00
28310;BME280;15571;50.974;13.936;2024-03-22T10:07:39;100191.22;;;15.74;100.00
28310;BME280;15571;50.974;13.936;2024-03-22T10:10:41;100190.19;;;15.79;100.00
28310;BME280;15571;50.974;13.936;2024-03-22T10:13:43;100187.47;;;15.84;100.00
28310;BME280;15571;50.974;13.936;2024-03-22T10:16:48;100187.28;;;15.90;100.00
28310;BME280;15571;50.974;13.936;2024-03-22T10:19:50;100176.63;;;15.93;100.00
28310;BME280;15571;50.974;13.936;2024-03-22T10:22:55;100176.03;;;16.15;100.00
28310;BME280;15571;50.974;13.936;2024-03-22T10:25:58;100170.56;;;16.21;100.00
28310;BME280;15571;50.974;13.936;2024-03-22T10:28:59;100169.03;;;16.42;100.00
28310;BME280;15571;50.974;13.936;2024-03-22T10:32:03;100166.63;;;16.63;100.00
28310;BME280;15571;50.974;13.936;2024-03-22T10:35:04;100158.09;;;16.83;100.00
28310;BME280;15571;50.974;13.936;2024-03-22T10:38:07;100157.69;;;16.95;100.00
28310;BME280;15571;50.974;13.936;2024-03-22T10:41:08;100157.50;;;17.02;100.00
28310;BME280;15571;50.974;13.936;2024-03-22T10:44:10;100153.63;;;17.12;100.00
28310;BME280;15571;50.974;13.936;2024-03-22T10:47:12;100142.00;;;17.18;100.00
28310;BME280;15571;50.974;13.936;2024-03-22T10:50:16;100148.13;;;17.18;100.00
28310;BME280;15571;50.974;13.936;2024-03-22T10:53:23;100137.94;;;17.33;100.00
28310;BME280;15571;50.974;13.936;2024-03-22T10:56:25;100140.03;;;17.48;100.00
28310;BME280;15571;50.974;13.936;2024-03-22T10:59:32;100131.09;;;17.52;100.00
28310;BME280;15571;50.974;13.936;2024-03-22T11:02:35;100118.09;;;17.70;100.00
28310;BME280;15571;50.974;13.936;2024-03-22T11:05:44;100118.94;;;17.70;100.00
28310;BME280;15571;50.974;13.936;2024-03-22T11:08:49;100110.56;;;17.83;100.00
28310;BME280;15571;50.974;13.936;2024-03-22T11:11:51;100105.72;;;17.94;100.00
28310;BME280;15571;50.974;13.936;2024-03-22T11:14:56;100092.84;;;18.09;100.00
28310;BME280;15571;50.974;13.936;2024-03-22T11:18:01;100086.44;;;18.14;100.00
28310;BME280;15571;50.974;13.936;2024-03-22T11:21:03;100075.84;;;18.14;100.00
28310;BME280;15571;50.974;13.936;2024-03-22T11:24:04;100081.16;;;17.91;100.00
28310;BME280;15571;50.974;13.936;2024-03-22T11:27:06;100074.13;;;18.13;100.00
28310;BME280;15571;50.974;13.936;2024-03-22T11:30:14;100070.31;;;18.20;100.00
28310;BME280;15571;50.974;13.936;2024-03-22T11:33:20;100061.09;;;18.31;100.00
28310;BME280;15571;50.974;13.936;2024-03-22T11:36:24;100049.50;;;18.33;100.00
28310;BME280;15571;50.974;13.936;2024-03-22T11:39:25;100038.88;;;18.33;100.00
28310;BME280;15571;50.974;13.936;2024-03-22T11:42:27;100036.84;;;18.40;100.00
28310;BME280;15571;50.974;13.936;2024-03-22T11:45:30;100040.28;;;18.42;100.00
28310;BME280;15571;50.974;13.936;2024-03-22T11:48:35;100034.06;;;18.43;100.00
28310;BME280;15571;50.974;13.936;2024-03-22T11:51:38;100030.19;;;18.52;100.00
28310;BME280;15571;50.974;13.936;2024-03-22T11:54:41;100028.19;;;18.37;100.00
28310;BME280;15571;50.974;13.936;2024-03-22T11:57:47;100021.38;;;18.51;100.00
28310;BME280;15571;50.974;13.936;2024-03-22T12:00:50;100013.22;;;18.56;100.00
28310;BME280;15571;50.974;13.936;2024-03-22T12:03:53;100005.75;;;18.66;97.97
28310;BME280;15571;50.974;13.936;2024-03-22T12:06:58;100008.38;;;18.66;100.00
28310;BME280;15571;50.974;13.936;2024-03-22T12:10:02;100000.97;;;18.74;98.91
28310;BME280;15571;50.974;13.936;2024-03-22T12:13:04;100004.81;;;18.67;100.00
28310;BME280;15571;50.974;13.936;2024-03-22T12:16:05;99993.28;;;18.68;100.00
28310;BME280;15571;50.974;13.936;2024-03-22T12:19:12;99994.81;;;18.74;100.00
28310;BME280;15571;50.974;13.936;2024-03-22T12:22:14;99995.94;;;18.68;100.00
28310;BME280;15571;50.974;13.936;2024-03-22T12:25:15;99982.06;;;18.82;100.00
28310;BME280;15571;50.974;13.936;2024-03-22T12:28:16;99983.44;;;18.91;100.00
28310;BME280;15571;50.974;13.936;2024-03-22T12:31:17;99971.03;;;18.93;100.00
28310;BME280;15571;50.974;13.936;2024-03-22T12:34:21;99974.38;;;18.96;100.00
28310;BME280;15571;50.974;13.936;2024-03-22T12:37:22;99973.97;;;19.06;100.00
28310;BME280;15571;50.974;13.936;2024-03-22T12:40:24;99972.59;;;19.18;100.00
28310;BME280;15571;50.974;13.936;2024-03-22T12:43:25;99974.72;;;19.09;98.73
28310;BME280;15571;50.974;13.936;2024-03-22T12:46:27;99972.28;;;19.05;100.00
28310;BME280;15571;50.974;13.936;2024-03-22T12:49:29;99959.75;;;19.08;100.00
28310;BME280;15571;50.974;13.936;2024-03-22T12:52:31;99964.53;;;19.00;100.00
28310;BME280;15571;50.974;13.936;2024-03-22T12:55:32;99957.50;;;18.99;100.00
28310;BME280;15571;50.974;13.936;2024-03-22T12:58:34;99960.66;;;19.07;100.00
28310;BME280;15571;50.974;13.936;2024-03-22T13:01:34;99942.31;;;19.22;100.00
28310;BME280;15571;50.974;13.936;2024-03-22T13:04:38;99942.31;;;19.22;100.00
28310;BME280;15571;50.974;13.936;2024-03-22T13:07:40;99934.34;;;19.22;100.00
28310;BME280;15571;50.974;13.936;2024-03-22T13:10:42;99929.75;;;19.06;100.00
28310;BME280;15571;50.974;13.936;2024-03-22T13:13:45;99931.06;;;19.17;100.00
28310;BME280;15571;50.974;13.936;2024-03-22T13:16:46;99919.44;;;19.19;100.00
28310;BME280;15571;50.974;13.936;2024-03-22T13:19:49;99918.50;;;19.20;100.00
28310;BME280;15571;50.974;13.936;2024-03-22T13:22:51;99916.00;;;19.17;100.00
28310;BME280;15571;50.974;13.936;2024-03-22T13:26:04;99905.16;;;19.22;100.00
28310;BME280;15571;50.974;13.936;2024-03-22T13:29:07;99908.75;;;19.21;100.00
28310;BME280;15571;50.974;13.936;2024-03-22T13:32:08;99898.44;;;19.15;100.00
28310;BME280;15571;50.974;13.936;2024-03-22T13:35:12;99899.44;;;19.12;100.00
28310;BME280;15571;50.974;13.936;2024-03-22T13:38:17;99893.00;;;19.18;100.00
28310;BME280;15571;50.974;13.936;2024-03-22T13:41:19;99886.59;;;19.22;100.00
28310;BME280;15571;50.974;13.936;2024-03-22T13:44:21;99881.44;;;19.19;100.00
28310;BME280;15571;50.974;13.936;2024-03-22T13:47:21;99876.16;;;19.19;100.00
28310;BME280;15571;50.974;13.936;2024-03-22T13:50:29;99880.09;;;19.29;99.25
28310;BME280;15571;50.974;13.936;2024-03-22T13:53:29;99865.31;;;19.23;100.00
28310;BME280;15571;50.974;13.936;2024-03-22T13:56:31;99857.34;;;19.23;99.01
28310;BME280;15571;50.974;13.936;2024-03-22T13:59:32;99856.78;;;19.17;99.33
28310;BME280;15571;50.974;13.936;2024-03-22T14:02:35;99846.97;;;19.19;100.00
28310;BME280;15571;50.974;13.936;2024-03-22T14:05:38;99843.50;;;19.17;100.00
28310;BME280;15571;50.974;13.936;2024-03-22T14:08:40;99846.94;;;19.00;99.86
28310;BME280;15571;50.974;13.936;2024-03-22T14:11:41;99848.88;;;18.96;100.00
28310;BME280;15571;50.974;13.936;2024-03-22T14:14:43;99843.28;;;19.02;100.00
28310;BME280;15571;50.974;13.936;2024-03-22T14:17:45;99842.56;;;18.98;100.00
28310;BME280;15571;50.974;13.936;2024-03-22T14:20:51;99834.88;;;18.92;100.00
28310;BME280;15571;50.974;13.936;2024-03-22T14:23:52;99822.81;;;18.66;100.00
28310;BME280;15571;50.974;13.936;2024-03-22T14:26:54;99827.69;;;18.75;100.00
28310;BME280;15571;50.974;13.936;2024-03-22T14:29:56;99821.25;;;18.81;100.00
28310;BME280;15571;50.974;13.936;2024-03-22T14:32:58;99820.41;;;18.80;100.00
28310;BME280;15571;50.974;13.936;2024-03-22T14:36:01;99816.03;;;18.79;100.00
28310;BME280;15571;50.974;13.936;2024-03-22T14:39:02;99817.22;;;18.72;100.00
28310;BME280;15571;50.974;13.936;2024-03-22T14:42:07;99802.47;;;18.66;100.00
28310;BME280;15571;50.974;13.936;2024-03-22T14:45:09;99798.75;;;18.51;100.00
28310;BME280;15571;50.974;13.936;2024-03-22T14:48:10;99797.53;;;18.59;100.00
28310;BME280;15571;50.974;13.936;2024-03-22T14:51:13;99794.28;;;18.52;100.00
28310;BME280;15571;50.974;13.936;2024-03-22T14:54:15;99783.09;;;18.45;100.00
28310;BME280;15571;50.974;13.936;2024-03-22T14:57:22;99786.97;;;18.38;100.00
28310;BME280;15571;50.974;13.936;2024-03-22T15:00:23;99787.56;;;18.45;100.00
28310;BME280;15571;50.974;13.936;2024-03-22T15:03:26;99777.94;;;18.42;100.00
28310;BME280;15571;50.974;13.936;2024-03-22T15:06:30;99788.69;;;18.39;100.00
28310;BME280;15571;50.974;13.936;2024-03-22T15:09:31;99780.88;;;18.36;100.00
28310;BME280;15571;50.974;13.936;2024-03-22T15:12:33;99782.88;;;18.31;100.00
28310;BME280;15571;50.974;13.936;2024-03-22T15:15:37;99772.31;;;18.29;100.00
28310;BME280;15571;50.974;13.936;2024-03-22T15:18:39;99779.56;;;18.26;100.00
28310;BME280;15571;50.974;13.936;2024-03-22T15:21:43;99789.44;;;18.22;100.00
28310;BME280;15571;50.974;13.936;2024-03-22T15:24:45;99782.50;;;18.19;100.00
28310;BME280;15571;50.974;13.936;2024-03-22T15:27:46;99779.69;;;18.23;100.00
28310;BME280;15571;50.974;13.936;2024-03-22T15:30:48;99770.44;;;18.12;100.00
28310;BME280;15571;50.974;13.936;2024-03-22T15:33:50;99770.28;;;18.15;100.00